Time;durP1;ratioP1;P1;durP2;ratioP2;P2;SDS_P1;SDS_P2;PMS_P1;PMS_P2;Temp;Humidity;BMP_temperature;BMP_pressure;BME280_temperature;BME280_humidity;BME280_pressure;Samples;Min_cycle;Max_cycle;Signal;HPM_P1;HPM_P2
2021/10/08 00:02:23;;;;;;;6.10;5.20;;;4.70;99.90;;;;;;5014248;28;20053;-89
2021/10/08 00:04:50;;;;;;;5.68;5.03;;;4.70;99.90;;;;;;5013605;28;20046;-90
2021/10/08 00:07:17;;;;;;;4.88;4.47;;;4.70;99.90;;;;;;5012239;28;20049;-90
2021/10/08 00:09:44;;;;;;;5.15;4.43;;;4.70;99.90;;;;;;5012554;28;20073;-90
2021/10/08 00:12:11;;;;;;;6.72;5.18;;;4.60;99.90;;;;;;5011894;28;20062;-90
2021/10/08 00:14:37;;;;;;;5.40;4.90;;;4.60;99.90;;;;;;5012352;28;20137;-90
2021/10/08 00:17:04;;;;;;;8.15;4.43;;;4.50;99.90;;;;;;5013233;28;20049;-90
2021/10/08 00:19:31;;;;;;;7.18;5.30;;;4.50;99.90;;;;;;5012246;28;20474;-91
2021/10/08 00:21:58;;;;;;;5.70;5.05;;;4.40;99.90;;;;;;5013501;28;20049;-90
2021/10/08 00:24:25;;;;;;;5.45;4.78;;;4.40;99.90;;;;;;5012250;28;20129;-90
2021/10/08 00:26:51;;;;;;;6.03;4.80;;;4.30;99.90;;;;;;5012172;28;20053;-91
2021/10/08 00:29:18;;;;;;;6.30;5.10;;;4.20;99.90;;;;;;5012103;28;20425;-90
2021/10/08 00:31:45;;;;;;;5.75;4.95;;;4.10;99.90;;;;;;5012245;28;20502;-90
2021/10/08 00:34:12;;;;;;;6.28;4.55;;;4.10;99.90;;;;;;5013288;28;20058;-90
2021/10/08 00:36:39;;;;;;;6.75;5.10;;;4.10;99.90;;;;;;5015801;28;20056;-90
2021/10/08 00:39:05;;;;;;;5.10;4.70;;;4.10;99.90;;;;;;5016989;28;20445;-90
2021/10/08 00:41:32;;;;;;;4.78;4.20;;;4.20;99.90;;;;;;5016651;28;20505;-91
2021/10/08 00:43:59;;;;;;;5.80;4.47;;;4.10;99.90;;;;;;5016586;28;20053;-90
2021/10/08 00:46:26;;;;;;;6.10;4.70;;;4.20;99.90;;;;;;5015602;28;20064;-91
2021/10/08 00:48:54;;;;;;;7.18;4.60;;;4.10;99.90;;;;;;5015867;28;20057;-90
2021/10/08 00:51:23;;;;;;;5.00;4.57;;;4.10;99.90;;;;;;5015854;28;20045;-91
2021/10/08 00:53:50;;;;;;;10.82;5.63;;;4.10;99.90;;;;;;5024057;28;20034;-91
2021/10/08 00:56:18;;;;;;;7.40;5.22;;;4.20;99.90;;;;;;5039208;28;20136;-90
2021/10/08 00:58:45;;;;;;;6.90;5.20;;;4.20;99.90;;;;;;5018456;28;20052;-90
2021/10/08 01:01:18;;;;;;;5.82;5.32;;;4.30;99.90;;;;;;5015531;28;20053;-90
2021/10/08 01:03:45;;;;;;;5.93;5.25;;;4.20;99.90;;;;;;5015728;28;20073;-90
2021/10/08 01:06:12;;;;;;;7.60;5.53;;;4.30;99.90;;;;;;5016348;28;20049;-91
2021/10/08 01:08:39;;;;;;;7.18;5.40;;;4.20;99.90;;;;;;5015381;28;20046;-91
2021/10/08 01:11:06;;;;;;;7.13;5.07;;;4.20;99.90;;;;;;5015141;28;20513;-90
2021/10/08 01:13:33;;;;;;;8.10;5.38;;;4.20;99.90;;;;;;5048161;28;20050;-90
2021/10/08 01:16:00;;;;;;;5.50;4.97;;;4.20;99.90;;;;;;5015372;28;20041;-90
2021/10/08 01:18:27;;;;;;;9.93;5.95;;;4.30;99.90;;;;;;5015110;28;20069;-90
2021/10/08 01:20:54;;;;;;;9.93;6.10;;;4.30;99.90;;;;;;5015087;28;20049;-90
2021/10/08 01:23:21;;;;;;;6.63;5.18;;;4.40;99.90;;;;;;5014755;28;20053;-91
2021/10/08 01:25:52;;;;;;;6.00;5.50;;;4.40;99.90;;;;;;5015756;28;20053;-90
2021/10/08 01:28:19;;;;;;;6.40;5.82;;;4.40;99.90;;;;;;5014644;28;20046;-91
2021/10/08 01:30:46;;;;;;;8.80;5.50;;;4.50;99.90;;;;;;5015088;28;20450;-90
2021/10/08 01:33:14;;;;;;;5.95;5.45;;;4.50;99.90;;;;;;5015625;28;20046;-91
2021/10/08 01:35:41;;;;;;;9.20;5.63;;;4.60;99.90;;;;;;5015700;28;20054;-90
2021/10/08 01:38:08;;;;;;;6.15;5.50;;;4.60;99.90;;;;;;5014591;28;20054;-90
2021/10/08 01:40:34;;;;;;;5.88;5.28;;;4.60;99.90;;;;;;5015606;28;20115;-90
2021/10/08 01:43:01;;;;;;;7.28;5.22;;;4.60;99.90;;;;;;5014669;28;20070;-91
2021/10/08 01:45:28;;;;;;;7.13;5.78;;;4.50;99.90;;;;;;5014225;28;20400;-90
2021/10/08 01:47:55;;;;;;;7.90;4.97;;;4.50;99.90;;;;;;5014319;28;20079;-90
2021/10/08 01:50:22;;;;;;;38.05;7.70;;;4.50;99.90;;;;;;5014723;28;20054;-90
2021/10/08 01:52:49;;;;;;;9.05;5.05;;;4.50;99.90;;;;;;5014576;28;20414;-90
2021/10/08 01:55:16;;;;;;;8.13;5.70;;;4.50;99.90;;;;;;5014239;28;20050;-89
2021/10/08 01:57:43;;;;;;;5.13;4.70;;;4.50;99.90;;;;;;5014240;28;20054;-90
2021/10/08 02:00:10;;;;;;;7.80;4.85;;;4.40;99.90;;;;;;5014462;28;20494;-90
2021/10/08 02:02:37;;;;;;;6.38;5.53;;;4.40;99.90;;;;;;5014940;28;20096;-90
2021/10/08 02:05:04;;;;;;;8.20;5.30;;;4.30;99.90;;;;;;5014079;28;20133;-91
2021/10/08 02:07:31;;;;;;;6.85;5.60;;;4.40;99.90;;;;;;5014170;28;20081;-90
2021/10/08 02:09:58;;;;;;;6.07;5.40;;;4.40;99.90;;;;;;5014436;28;20050;-90
2021/10/08 02:12:25;;;;;;;7.40;6.70;;;4.50;99.90;;;;;;5023767;28;20057;-91
2021/10/08 02:14:52;;;;;;;9.88;6.32;;;4.40;99.90;;;;;;5038959;28;20040;-90
2021/10/08 02:17:19;;;;;;;8.88;6.30;;;4.40;99.90;;;;;;5016115;28;20402;-90
2021/10/08 02:19:46;;;;;;;7.72;6.03;;;4.40;99.90;;;;;;5014054;28;20121;-91
2021/10/08 02:22:13;;;;;;;10.93;7.63;;;4.60;99.90;;;;;;5013896;28;20048;-90
2021/10/08 02:24:39;;;;;;;9.90;6.68;;;4.60;99.90;;;;;;5014879;28;20052;-90
2021/10/08 02:27:06;;;;;;;7.97;6.43;;;4.70;99.90;;;;;;5014809;28;20434;-90
2021/10/08 02:29:33;;;;;;;14.05;6.20;;;4.80;99.90;;;;;;5013793;28;20064;-91
2021/10/08 02:32:00;;;;;;;7.13;5.65;;;4.90;99.90;;;;;;5013994;28;20045;-90
2021/10/08 02:34:26;;;;;;;7.20;6.50;;;5.00;99.90;;;;;;5013466;28;20478;-91
2021/10/08 02:36:53;;;;;;;10.85;7.10;;;4.90;99.90;;;;;;5014674;28;20056;-90
2021/10/08 02:39:20;;;;;;;7.85;5.90;;;5.00;99.90;;;;;;5014496;28;20470;-90
2021/10/08 02:41:47;;;;;;;9.60;6.70;;;5.00;99.90;;;;;;5013504;28;20483;-90
2021/10/08 02:44:14;;;;;;;8.30;6.03;;;5.00;99.90;;;;;;5013308;28;20407;-90
2021/10/08 02:46:41;;;;;;;8.80;5.90;;;5.00;99.90;;;;;;5014167;28;20104;-90
2021/10/08 02:49:07;;;;;;;8.50;5.90;;;5.10;99.90;;;;;;5014388;28;20417;-90
2021/10/08 02:51:35;;;;;;;14.02;6.57;;;5.00;99.90;;;;;;5013165;28;20652;-90
2021/10/08 02:54:03;;;;;;;8.02;6.20;;;5.10;99.90;;;;;;5013395;28;20077;-90
2021/10/08 02:56:29;;;;;;;6.68;6.03;;;5.20;99.90;;;;;;5012586;28;20498;-90
2021/10/08 02:58:56;;;;;;;11.15;7.20;;;5.30;99.90;;;;;;5014033;28;20053;-90
2021/10/08 03:01:23;;;;;;;9.52;5.88;;;5.30;99.90;;;;;;5013446;28;20059;-90
2021/10/08 03:03:50;;;;;;;10.45;5.85;;;5.40;99.90;;;;;;5014611;28;20502;-91
2021/10/08 03:06:17;;;;;;;8.27;6.03;;;5.40;99.90;;;;;;5013177;28;20050;-90
2021/10/08 03:08:45;;;;;;;8.88;5.50;;;5.40;99.90;;;;;;5013147;28;20055;-91
2021/10/08 03:11:12;;;;;;;7.95;6.10;;;5.50;99.90;;;;;;5012972;28;20137;-89
2021/10/08 03:13:39;;;;;;;9.85;6.32;;;5.50;99.90;;;;;;5045904;28;20060;-89
2021/10/08 03:16:06;;;;;;;10.02;5.88;;;5.60;99.90;;;;;;5013215;28;20483;-90
2021/10/08 03:18:33;;;;;;;10.38;6.57;;;5.60;99.90;;;;;;5013765;28;20052;-90
2021/10/08 03:21:00;;;;;;;7.85;5.35;;;5.50;99.90;;;;;;5013043;28;20050;-90
2021/10/08 03:23:27;;;;;;;10.90;5.63;;;5.50;99.90;;;;;;5013696;28;20479;-90
2021/10/08 03:25:53;;;;;;;6.75;5.38;;;5.60;99.90;;;;;;5012831;28;20051;-90
2021/10/08 03:28:20;;;;;;;10.48;6.45;;;5.60;99.90;;;;;;5013896;28;20520;-90
2021/10/08 03:30:47;;;;;;;8.73;5.72;;;5.60;99.90;;;;;;5019385;28;20042;-90
2021/10/08 03:33:14;;;;;;;8.45;5.95;;;5.70;99.90;;;;;;5037632;28;20038;-90
2021/10/08 03:35:43;;;;;;;9.60;6.57;;;5.70;99.90;;;;;;5019433;28;20080;-90
2021/10/08 03:38:15;;;;;;;7.18;5.78;;;5.80;99.90;;;;;;5013446;28;20056;-90
2021/10/08 03:40:48;;;;;;;7.75;5.80;;;5.80;99.90;;;;;;5012785;28;20077;-90
2021/10/08 03:43:15;;;;;;;9.70;5.70;;;5.80;99.90;;;;;;5012798;28;20124;-90
2021/10/08 03:45:46;;;;;;;16.17;7.25;;;5.80;99.90;;;;;;5012256;28;20046;-90
2021/10/08 03:48:37;;;;;;;8.82;6.38;;;5.80;99.90;;;;;;5013564;28;20065;-90
2021/10/08 03:51:04;;;;;;;13.73;6.10;;;5.80;99.90;;;;;;5012453;28;20068;-90
2021/10/08 03:53:32;;;;;;;9.63;5.75;;;5.90;99.90;;;;;;5013459;28;20045;-90
2021/10/08 03:55:59;;;;;;;7.35;6.10;;;6.00;99.90;;;;;;5012485;28;20046;-90
2021/10/08 03:58:26;;;;;;;11.18;6.80;;;6.00;99.90;;;;;;5012741;28;20545;-90
2021/10/08 04:00:52;;;;;;;6.53;5.38;;;6.00;99.90;;;;;;5012757;28;20048;-90
2021/10/08 04:03:19;;;;;;;9.55;6.10;;;6.10;99.90;;;;;;5013232;28;20054;-90
2021/10/08 04:05:46;;;;;;;7.03;6.32;;;6.10;99.90;;;;;;5013640;28;20057;-89
2021/10/08 04:08:13;;;;;;;8.60;5.47;;;6.20;99.90;;;;;;5013712;28;20129;-90
2021/10/08 04:10:40;;;;;;;7.70;6.55;;;6.20;99.90;;;;;;5015657;28;20128;-90
2021/10/08 04:13:07;;;;;;;8.73;5.47;;;6.10;99.90;;;;;;5016303;28;20060;-90
2021/10/08 04:15:34;;;;;;;6.40;5.18;;;6.20;99.90;;;;;;5016215;28;20045;-90
2021/10/08 04:18:00;;;;;;;7.90;5.63;;;6.30;99.90;;;;;;5015122;28;20053;-90
2021/10/08 04:20:28;;;;;;;7.47;5.45;;;6.30;99.90;;;;;;5017138;28;20128;-90
2021/10/08 04:22:54;;;;;;;6.93;5.60;;;6.40;99.90;;;;;;5017203;28;20068;-90
2021/10/08 04:25:21;;;;;;;7.10;5.45;;;6.40;99.90;;;;;;5017304;28;20054;-90
2021/10/08 04:27:48;;;;;;;7.32;5.13;;;6.40;99.90;;;;;;5016123;28;20054;-90
2021/10/08 04:30:15;;;;;;;6.20;5.38;;;6.40;99.90;;;;;;5015982;28;20057;-90
2021/10/08 04:32:42;;;;;;;7.00;5.50;;;6.40;99.90;;;;;;5016823;28;20053;-90
2021/10/08 04:35:09;;;;;;;11.63;6.43;;;6.40;99.90;;;;;;5015701;28;20050;-90
2021/10/08 04:37:36;;;;;;;9.43;6.68;;;6.50;99.90;;;;;;5016036;28;20107;-89
2021/10/08 04:40:04;;;;;;;6.47;5.80;;;6.40;99.90;;;;;;5016862;28;20068;-90
2021/10/08 04:42:31;;;;;;;7.25;5.75;;;6.50;99.90;;;;;;5017040;28;20042;-90
2021/10/08 04:44:57;;;;;;;10.25;6.35;;;6.60;99.90;;;;;;5015808;28;20056;-89
2021/10/08 04:47:24;;;;;;;7.25;6.32;;;6.60;99.90;;;;;;5015775;28;20511;-90
2021/10/08 04:49:51;;;;;;;11.70;5.60;;;6.70;99.90;;;;;;5026645;28;20033;-89
2021/10/08 04:52:18;;;;;;;15.45;5.82;;;6.70;99.90;;;;;;5040710;28;20061;-89
2021/10/08 04:54:45;;;;;;;7.70;5.15;;;6.80;99.90;;;;;;5019078;28;20053;-90
2021/10/08 04:57:12;;;;;;;9.80;4.72;;;6.80;99.90;;;;;;5016213;28;20142;-90
2021/10/08 04:59:39;;;;;;;5.95;4.78;;;6.80;99.90;;;;;;5015019;28;20054;-90
2021/10/08 05:02:05;;;;;;;7.13;4.53;;;6.80;99.90;;;;;;5016574;28;20053;-90
2021/10/08 05:04:32;;;;;;;5.60;4.82;;;6.80;99.90;;;;;;5015611;28;20081;-89
2021/10/08 05:06:59;;;;;;;8.13;5.63;;;6.80;99.90;;;;;;5015001;28;20124;-90
2021/10/08 05:09:26;;;;;;;10.80;5.82;;;6.80;99.90;;;;;;5015216;28;20077;-89
2021/10/08 05:11:53;;;;;;;10.57;5.57;;;6.80;99.90;;;;;;5016120;28;20587;-89
2021/10/08 05:14:19;;;;;;;6.53;5.88;;;6.80;99.90;;;;;;5048125;28;20049;-89
2021/10/08 05:16:46;;;;;;;9.05;6.07;;;6.90;99.90;;;;;;5015222;28;20046;-90
2021/10/08 05:19:13;;;;;;;6.72;5.50;;;6.90;99.90;;;;;;5015767;28;20122;-89
2021/10/08 05:21:40;;;;;;;12.13;5.38;;;7.00;99.90;;;;;;5014841;28;20156;-89
2021/10/08 05:24:07;;;;;;;7.72;5.35;;;7.00;99.90;;;;;;5016395;28;20137;-89
2021/10/08 05:26:33;;;;;;;10.63;6.00;;;7.00;99.90;;;;;;5015176;28;20108;-89
2021/10/08 05:29:04;;;;;;;15.20;5.85;;;7.10;99.90;;;;;;5014823;28;20056;-89
2021/10/08 05:31:33;;;;;;;9.25;5.30;;;7.10;99.90;;;;;;5015030;28;20081;-89
2021/10/08 05:34:00;;;;;;;12.15;5.75;;;7.10;99.90;;;;;;5014898;28;20057;-89
2021/10/08 05:36:26;;;;;;;11.35;6.32;;;7.20;99.90;;;;;;5014824;28;20144;-89
2021/10/08 05:38:53;;;;;;;14.82;6.45;;;7.20;99.90;;;;;;5014849;28;20049;-89
2021/10/08 05:41:20;;;;;;;9.73;5.30;;;7.20;99.90;;;;;;5015734;28;20050;-88
2021/10/08 05:43:47;;;;;;;6.88;5.50;;;7.20;99.90;;;;;;5014585;28;20053;-89
2021/10/08 05:46:14;;;;;;;16.38;6.50;;;7.20;99.90;;;;;;5014607;28;20132;-89
2021/10/08 05:48:41;;;;;;;15.32;6.20;;;7.30;99.90;;;;;;5014691;28;20109;-89
2021/10/08 05:51:08;;;;;;;12.02;6.05;;;7.30;99.90;;;;;;5014473;28;20045;-89
2021/10/08 05:53:34;;;;;;;13.48;5.70;;;7.40;99.90;;;;;;5014416;28;20058;-89
2021/10/08 05:56:01;;;;;;;11.40;5.10;;;7.30;99.90;;;;;;5014124;28;20056;-89
2021/10/08 05:58:28;;;;;;;12.60;4.60;;;7.40;99.90;;;;;;5014371;28;20060;-88
2021/10/08 06:00:54;;;;;;;8.70;5.75;;;7.40;99.90;;;;;;5014240;28;20045;-89
2021/10/08 06:03:22;;;;;;;10.70;5.05;;;7.40;99.90;;;;;;5015010;28;20414;-89
2021/10/08 06:05:49;;;;;;;7.93;4.90;;;7.40;99.90;;;;;;5015097;28;20046;-89
2021/10/08 06:08:15;;;;;;;6.57;4.90;;;7.40;99.90;;;;;;5018309;28;20053;-90
2021/10/08 06:10:42;;;;;;;8.45;4.82;;;7.50;99.90;;;;;;5035709;28;20133;-89
2021/10/08 06:13:09;;;;;;;5.72;4.25;;;7.50;99.90;;;;;;5020788;28;20046;-89
2021/10/08 06:15:36;;;;;;;4.72;4.32;;;7.60;99.90;;;;;;5046794;28;20088;-89
2021/10/08 06:18:03;;;;;;;8.10;5.28;;;7.50;99.90;;;;;;5014020;28;20089;-89
2021/10/08 06:20:31;;;;;;;5.72;4.57;;;7.50;99.90;;;;;;5014312;28;20050;-89
2021/10/08 06:22:58;;;;;;;8.00;5.53;;;7.60;99.90;;;;;;5014565;28;20042;-89
2021/10/08 06:25:25;;;;;;;6.30;4.72;;;7.60;99.90;;;;;;5015310;28;20431;-89
2021/10/08 06:27:52;;;;;;;5.93;4.68;;;7.60;99.90;;;;;;5014179;28;20050;-88
2021/10/08 06:30:20;;;;;;;7.80;5.15;;;7.70;99.90;;;;;;5014847;28;20085;-89
2021/10/08 06:32:48;;;;;;;8.75;4.82;;;7.70;99.90;;;;;;5012958;28;20092;-89
2021/10/08 06:35:16;;;;;;;5.88;4.53;;;7.80;99.90;;;;;;5013240;28;20079;-88
2021/10/08 06:37:43;;;;;;;8.82;4.50;;;7.80;99.90;;;;;;5013600;28;20092;-89
2021/10/08 06:40:11;;;;;;;5.45;4.90;;;7.70;99.90;;;;;;5013341;28;20046;-89
2021/10/08 06:42:38;;;;;;;5.28;4.53;;;7.80;99.90;;;;;;5013546;28;20057;-89
2021/10/08 06:45:05;;;;;;;4.90;4.40;;;7.80;99.90;;;;;;5013407;28;20108;-89
2021/10/08 06:47:32;;;;;;;7.43;5.32;;;7.90;99.90;;;;;;5013626;28;20081;-89
2021/10/08 06:49:59;;;;;;;7.57;5.47;;;8.00;99.90;;;;;;5013443;28;20088;-89
2021/10/08 06:52:26;;;;;;;6.38;5.13;;;8.00;99.90;;;;;;5013583;28;20045;-89
2021/10/08 06:54:53;;;;;;;7.28;5.60;;;8.00;99.90;;;;;;5013286;28;20481;-89
2021/10/08 06:57:19;;;;;;;8.23;4.85;;;8.10;99.90;;;;;;5013896;28;20483;-88
2021/10/08 06:59:46;;;;;;;7.05;5.75;;;8.20;99.90;;;;;;5012132;28;20046;-88
2021/10/08 07:02:13;;;;;;;11.77;5.30;;;8.30;99.90;;;;;;5014375;28;20050;-89
2021/10/08 07:04:40;;;;;;;13.75;9.23;;;8.30;99.90;;;;;;5014054;28;20080;-89
2021/10/08 07:07:07;;;;;;;13.07;11.13;;;8.40;99.90;;;;;;5013995;28;20535;-88
2021/10/08 07:09:33;;;;;;;16.80;7.03;;;8.40;99.90;;;;;;5013249;28;20136;-89
2021/10/08 07:12:00;;;;;;;18.42;10.48;;;8.40;99.90;;;;;;5013010;28;20491;-89
2021/10/08 07:14:27;;;;;;;44.08;27.65;;;8.40;99.90;;;;;;5014113;28;20046;-89
2021/10/08 07:16:57;;;;;;;10.85;4.85;;;8.40;99.90;;;;;;5013054;28;20042;-89
2021/10/08 07:19:24;;;;;;;7.82;5.00;;;8.40;99.90;;;;;;5013901;28;20566;-89
2021/10/08 07:21:51;;;;;;;11.95;5.28;;;8.60;99.90;;;;;;5013352;28;20092;-89
2021/10/08 07:24:19;;;;;;;9.25;5.55;;;8.60;99.90;;;;;;5013089;28;20068;-89
2021/10/08 07:26:46;;;;;;;9.75;5.28;;;8.60;99.90;;;;;;5019323;28;20060;-89
2021/10/08 07:29:13;;;;;;;11.07;4.25;;;8.50;99.90;;;;;;5034434;28;20080;-89
2021/10/08 07:31:39;;;;;;;8.52;4.50;;;8.60;99.90;;;;;;5018869;28;20054;-89
2021/10/08 07:34:07;;;;;;;11.80;4.45;;;8.60;99.90;;;;;;5013915;28;20395;-89
2021/10/08 07:36:34;;;;;;;6.00;4.28;;;8.70;99.90;;;;;;5012610;28;20478;-88
2021/10/08 07:39:01;;;;;;;7.95;4.60;;;8.80;99.90;;;;;;5013516;28;20141;-89
2021/10/08 07:41:28;;;;;;;11.73;4.43;;;9.00;99.90;;;;;;5012469;28;20046;-88
2021/10/08 07:43:54;;;;;;;9.25;4.70;;;9.00;99.90;;;;;;5013607;28;20436;-89
2021/10/08 07:46:21;;;;;;;8.38;4.57;;;9.00;99.90;;;;;;5013262;28;20137;-90
2021/10/08 07:48:48;;;;;;;6.68;4.85;;;9.10;99.90;;;;;;5013813;28;20129;-88
2021/10/08 07:51:15;;;;;;;7.68;4.10;;;9.00;99.90;;;;;;5012575;28;20046;-88
2021/10/08 07:53:42;;;;;;;9.10;4.53;;;8.90;99.90;;;;;;5012485;28;20045;-87
2021/10/08 07:56:09;;;;;;;6.72;4.28;;;9.00;99.90;;;;;;5012521;28;20099;-87
2021/10/08 07:58:35;;;;;;;4.57;4.10;;;8.90;99.90;;;;;;5012423;28;20077;-89
2021/10/08 08:01:04;;;;;;;4.18;3.78;;;9.00;99.90;;;;;;5013447;28;20100;-87
2021/10/08 08:03:31;;;;;;;8.77;4.43;;;9.00;99.90;;;;;;5012901;28;20056;-87
2021/10/08 08:05:58;;;;;;;5.07;4.20;;;9.20;99.90;;;;;;5012293;28;20054;-87
2021/10/08 08:08:24;;;;;;;4.60;4.07;;;9.30;99.90;;;;;;5012605;28;20054;-86
2021/10/08 08:10:51;;;;;;;7.90;4.13;;;9.40;99.90;;;;;;5012477;28;20068;-87
2021/10/08 08:13:18;;;;;;;6.38;4.65;;;9.50;99.90;;;;;;5012328;28;20046;-87
2021/10/08 08:15:46;;;;;;;13.93;4.90;;;9.60;99.90;;;;;;5011729;28;20056;-89
2021/10/08 08:18:12;;;;;;;9.02;4.95;;;9.70;99.90;;;;;;5012503;28;20046;-89
2021/10/08 08:20:39;;;;;;;7.82;4.53;;;9.80;99.90;;;;;;5012498;28;20112;-89
2021/10/08 08:23:06;;;;;;;7.53;4.47;;;9.80;99.90;;;;;;5012489;28;20081;-90
2021/10/08 08:25:33;;;;;;;10.43;4.38;;;9.90;99.90;;;;;;5012354;28;20494;-89
2021/10/08 08:28:00;;;;;;;7.32;4.97;;;9.90;99.90;;;;;;5014239;28;20046;-89
2021/10/08 08:30:27;;;;;;;9.73;5.18;;;10.00;99.90;;;;;;5012510;28;20137;-89
2021/10/08 08:32:54;;;;;;;10.10;5.13;;;10.10;99.90;;;;;;5013422;28;20046;-89
2021/10/08 08:35:21;;;;;;;8.35;5.50;;;10.20;99.90;;;;;;5013092;28;20060;-90
2021/10/08 08:37:48;;;;;;;10.27;5.78;;;10.20;99.90;;;;;;5012576;28;20078;-89
2021/10/08 08:40:14;;;;;;;15.65;7.88;;;10.40;99.90;;;;;;5011348;28;20046;-87
2021/10/08 08:42:41;;;;;;;17.25;7.60;;;10.40;99.90;;;;;;5013561;28;20105;-87
2021/10/08 08:45:08;;;;;;;21.73;8.43;;;10.50;99.90;;;;;;5019951;28;20109;-87
2021/10/08 08:47:36;;;;;;;18.98;8.98;;;10.50;99.90;;;;;;5032328;28;20084;-87
2021/10/08 08:50:04;;;;;;;33.95;17.60;;;10.60;99.90;;;;;;5014956;28;20132;-87
2021/10/08 08:52:31;;;;;;;33.20;17.10;;;10.70;99.90;;;;;;5013352;28;20085;-87
2021/10/08 08:54:58;;;;;;;45.42;19.10;;;10.80;99.90;;;;;;5013374;28;20129;-87
2021/10/08 08:57:25;;;;;;;411.75;174.27;;;10.80;99.90;;;;;;5015404;28;20057;-87
2021/10/08 09:00:12;;;;;;;370.70;168.07;;;10.70;99.90;;;;;;5015465;28;20108;-87
2021/10/08 09:02:42;;;;;;;177.05;93.65;;;10.70;99.90;;;;;;5015353;28;20487;-88
2021/10/08 09:05:20;;;;;;;139.55;84.32;;;10.90;99.90;;;;;;5015253;28;20050;-86
2021/10/08 09:07:47;;;;;;;67.53;39.13;;;10.80;99.90;;;;;;5015427;28;20093;-87
2021/10/08 09:10:17;;;;;;;78.13;47.80;;;10.70;99.90;;;;;;5015383;28;20048;-87
2021/10/08 09:12:45;;;;;;;65.25;27.92;;;10.70;99.90;;;;;;5014946;28;20058;-87
2021/10/08 09:15:13;;;;;;;51.30;25.63;;;10.90;99.90;;;;;;5047617;28;20056;-87
2021/10/08 09:17:40;;;;;;;57.88;27.95;;;11.00;99.90;;;;;;5015070;28;20140;-87
2021/10/08 09:20:11;;;;;;;65.20;33.40;;;11.10;99.90;;;;;;5014965;28;20512;-87
2021/10/08 09:22:39;;;;;;;65.32;29.42;;;11.20;99.90;;;;;;5015236;28;20045;-88
2021/10/08 09:25:26;;;;;;;65.15;30.67;;;11.00;99.90;;;;;;5014590;28;20081;-89
2021/10/08 09:28:04;;;;;;;72.65;31.30;;;10.90;99.90;;;;;;5015130;28;20104;-87
2021/10/08 09:30:43;;;;;;;66.15;29.33;;;10.80;99.90;;;;;;5015284;28;20433;-89
2021/10/08 09:33:13;;;;;;;67.63;31.63;;;10.80;99.90;;;;;;5014826;28;20494;-87
2021/10/08 09:35:41;;;;;;;65.45;29.58;;;10.90;99.90;;;;;;5014578;28;20054;-87
2021/10/08 09:38:12;;;;;;;66.50;31.23;;;10.90;99.90;;;;;;5014918;28;20050;-87
2021/10/08 09:40:51;;;;;;;62.78;29.70;;;11.00;99.90;;;;;;5015569;28;20144;-89
2021/10/08 09:43:26;;;;;;;65.78;30.65;;;10.80;99.90;;;;;;5014838;28;20116;-87
2021/10/08 09:45:56;;;;;;;69.60;29.90;;;10.80;99.90;;;;;;5015485;28;20407;-87
2021/10/08 09:48:26;;;;;;;64.95;29.77;;;11.00;99.90;;;;;;5014616;28;20057;-87
2021/10/08 09:51:17;;;;;;;68.88;31.23;;;11.00;99.90;;;;;;5014454;28;20439;-87
2021/10/08 09:53:46;;;;;;;73.07;33.60;;;10.90;99.90;;;;;;5009756;28;20100;-89
2021/10/08 09:56:35;;;;;;;68.75;29.73;;;10.80;99.90;;;;;;5015042;28;20050;-89
2021/10/08 09:59:04;;;;;;;74.72;31.45;;;10.90;99.90;;;;;;5014833;28;20406;-87
2021/10/08 10:01:33;;;;;;;72.15;31.00;;;11.00;99.90;;;;;;5014313;28;20046;-87
2021/10/08 10:04:02;;;;;;;58.25;27.40;;;11.00;99.90;;;;;;5015425;28;20108;-87
2021/10/08 10:06:29;;;;;;;61.10;29.27;;;11.20;99.90;;;;;;5020020;28;20056;-87
2021/10/08 10:08:56;;;;;;;70.78;29.95;;;11.20;99.90;;;;;;5014098;28;20050;-88
2021/10/08 10:11:25;;;;;;;58.63;28.67;;;11.10;99.90;;;;;;5013866;28;20490;-88
2021/10/08 10:13:59;;;;;;;63.92;29.88;;;11.10;99.90;;;;;;5015106;28;20048;-87
2021/10/08 10:16:33;;;;;;;64.60;30.08;;;11.10;99.90;;;;;;5015110;28;20054;-87
2021/10/08 10:19:02;;;;;;;60.50;28.92;;;11.20;99.90;;;;;;5013900;28;20053;-86
2021/10/08 10:21:32;;;;;;;65.45;30.08;;;11.30;99.90;;;;;;5014833;28;20060;-86
2021/10/08 10:24:01;;;;;;;65.13;32.08;;;11.20;99.90;;;;;;5014164;28;20449;-88
2021/10/08 10:26:31;;;;;;;65.82;30.60;;;11.30;99.90;;;;;;5013714;28;20482;-87
2021/10/08 10:28:59;;;;;;;68.75;30.48;;;11.30;99.90;;;;;;5013777;28;20525;-86
2021/10/08 10:31:27;;;;;;;64.53;32.33;;;11.30;99.90;;;;;;5013633;28;20053;-88
2021/10/08 10:34:01;;;;;;;61.78;32.28;;;11.30;99.90;;;;;;5014815;28;20056;-90
2021/10/08 10:36:31;;;;;;;55.17;30.08;;;11.40;99.90;;;;;;5014747;28;20054;-89
2021/10/08 10:39:15;;;;;;;63.67;31.60;;;11.40;99.90;;;;;;5013596;28;20096;-89
2021/10/08 10:41:43;;;;;;;67.20;32.97;;;11.50;99.90;;;;;;5014583;28;20414;-89
2021/10/08 10:44:30;;;;;;;65.93;33.08;;;11.50;99.90;;;;;;5014611;28;20072;-89
2021/10/08 10:47:17;;;;;;;65.65;33.08;;;11.50;99.90;;;;;;5013730;28;20472;-89
2021/10/08 10:49:52;;;;;;;63.15;33.30;;;11.50;99.90;;;;;;5014546;28;20049;-89
2021/10/08 10:52:22;;;;;;;66.68;32.95;;;11.60;99.90;;;;;;5014183;28;20049;-88
2021/10/08 10:54:51;;;;;;;66.40;33.50;;;11.60;99.90;;;;;;5012944;28;20507;-88
2021/10/08 10:57:18;;;;;;;67.03;32.45;;;11.60;99.90;;;;;;5013286;28;20056;-88
2021/10/08 10:59:45;;;;;;;61.58;32.63;;;11.60;99.90;;;;;;5013112;28;20060;-89
2021/10/08 11:02:14;;;;;;;63.72;32.80;;;11.60;99.90;;;;;;5013917;28;20052;-89
2021/10/08 11:04:51;;;;;;;64.45;31.65;;;11.60;99.90;;;;;;5013898;28;20050;-89
2021/10/08 11:07:23;;;;;;;64.43;33.10;;;11.60;99.90;;;;;;5013059;28;20050;-89
2021/10/08 11:10:02;;;;;;;60.92;32.83;;;11.90;99.90;;;;;;5013078;28;20491;-89
2021/10/08 11:12:41;;;;;;;55.22;30.88;;;12.10;99.90;;;;;;5012890;28;20058;-89
2021/10/08 11:15:16;;;;;;;58.80;32.30;;;12.50;99.90;;;;;;5013835;28;20137;-89
2021/10/08 11:17:45;;;;;;;58.78;34.92;;;12.50;99.90;;;;;;5012154;28;20073;-89
2021/10/08 11:20:30;;;;;;;63.58;32.58;;;12.40;99.90;;;;;;5013240;28;20387;-89
2021/10/08 11:23:00;;;;;;;57.00;32.15;;;12.50;99.90;;;;;;5017455;28;20080;-87
2021/10/08 11:25:32;;;;;;;62.63;32.83;;;12.50;99.90;;;;;;5014993;28;20140;-87
2021/10/08 11:27:59;;;;;;;50.00;30.67;;;12.70;99.90;;;;;;5013775;28;20087;-89
2021/10/08 11:30:29;;;;;;;56.33;30.85;;;12.70;99.90;;;;;;5012769;28;20042;-89
2021/10/08 11:32:57;;;;;;;55.95;33.25;;;12.70;99.90;;;;;;5012777;28;20072;-89
2021/10/08 11:35:36;;;;;;;60.97;32.75;;;12.50;99.90;;;;;;5012547;28;20051;-88
2021/10/08 11:38:04;;;;;;;51.10;30.35;;;12.60;99.90;;;;;;5012694;28;20140;-89
2021/10/08 11:40:45;;;;;;;53.47;31.85;;;12.90;99.90;;;;;;5012449;28;20525;-89
2021/10/08 11:43:27;;;;;;;52.67;30.40;;;13.10;99.90;;;;;;5013539;28;20137;-89
2021/10/08 11:46:11;;;;;;;49.13;30.05;;;13.40;99.90;;;;;;5013705;28;20060;-87
2021/10/08 11:48:44;;;;;;;52.10;30.60;;;13.30;99.90;;;;;;5012885;28;20046;-89
2021/10/08 11:51:10;;;;;;;57.63;30.95;;;13.20;99.90;;;;;;5012559;28;20056;-90
2021/10/08 11:53:52;;;;;;;50.90;29.85;;;13.30;99.90;;;;;;5013343;28;20136;-89
2021/10/08 11:56:27;;;;;;;45.55;28.30;;;13.60;99.90;;;;;;5013211;28;20053;-89
2021/10/08 11:59:09;;;;;;;52.20;29.38;;;13.70;99.90;;;;;;5013742;28;20132;-89
2021/10/08 12:01:38;;;;;;;47.83;26.20;;;14.30;99.90;;;;;;5012483;28;20050;-90
2021/10/08 12:04:17;;;;;;;42.40;26.20;;;14.70;99.90;;;;;;5012581;28;20415;-87
2021/10/08 12:06:45;;;;;;;59.72;30.90;;;14.80;99.90;;;;;;5012169;28;20076;-88
2021/10/08 12:09:21;;;;;;;51.83;29.33;;;14.70;99.90;;;;;;5012715;28;20053;-88
2021/10/08 12:11:48;;;;;;;49.63;27.50;;;14.50;99.90;;;;;;5012105;28;20080;-89
2021/10/08 12:14:16;;;;;;;38.55;24.45;;;14.40;99.90;;;;;;5011906;28;20050;-89
2021/10/08 12:16:45;;;;;;;38.50;23.55;;;14.30;99.90;;;;;;5012314;28;20056;-89
2021/10/08 12:19:14;;;;;;;41.63;25.05;;;14.10;99.90;;;;;;5012094;28;20050;-88
2021/10/08 12:21:50;;;;;;;44.70;26.50;;;14.20;99.90;;;;;;5012410;28;20053;-89
2021/10/08 12:24:22;;;;;;;37.92;23.90;;;14.20;99.90;;;;;;5013129;28;20096;-88
2021/10/08 12:26:58;;;;;;;38.97;24.30;;;14.30;99.90;;;;;;5012554;28;20054;-89
2021/10/08 12:29:33;;;;;;;34.75;22.85;;;14.60;99.90;;;;;;5012029;28;20368;-89
2021/10/08 12:32:04;;;;;;;33.10;21.83;;;14.80;99.90;;;;;;5016803;28;20050;-89
2021/10/08 12:34:47;;;;;;;36.33;23.85;;;15.00;99.90;;;;;;5016045;28;20172;-89
2021/10/08 12:37:22;;;;;;;34.53;21.87;;;14.90;99.90;;;;;;5016854;28;20053;-89
2021/10/08 12:40:18;;;;;;;36.70;21.92;;;14.90;99.90;;;;;;5060643;28;20426;-89
2021/10/08 12:42:53;;;;;;;34.10;21.17;;;15.30;99.90;;;;;;5021883;28;20046;-89
2021/10/08 12:45:25;;;;;;;29.38;20.02;;;15.30;99.90;;;;;;5015653;28;20073;-89
2021/10/08 12:47:52;;;;;;;31.88;20.67;;;15.50;99.90;;;;;;5015684;28;20041;-89
2021/10/08 12:50:24;;;;;;;32.17;21.55;;;15.40;99.90;;;;;;5015731;28;20137;-90
2021/10/08 12:52:53;;;;;;;38.38;20.38;;;15.00;99.90;;;;;;5015641;28;20525;-88
2021/10/08 12:55:30;;;;;;;34.85;20.55;;;15.00;99.90;;;;;;5015210;28;20046;-89